Time,TemperatureF,DewpointF,PressureIn,WindDirection,WindDirectionDegrees,WindSpeedMPH,WindSpeedGustMPH,Humidity,HourlyPrecipIn,Conditions,Clouds,dailyrainin,SoftwareType,DateUTC
2013-08-14 00:05:00,63.0,50.6,30.16,NE,49,0.0,0.0,64,0.00,CLR,CLR,0.00,WeatherDisplay:10.37,2013-08-14 05:05:00,
2013-08-14 00:10:00,62.9,50.5,30.16,NE,49,0.0,0.0,64,0.00,CLR,CLR,0.00,WeatherDisplay:10.37,2013-08-14 05:10:00,
2013-08-14 00:15:00,63.0,50.6,30.16,NE,49,0.0,0.0,64,0.00,CLR,CLR,0.00,WeatherDisplay:10.37,2013-08-14 05:15:00,
2013-08-14 00:20:00,62.9,50.5,30.16,NE,49,0.0,0.0,64,0.00,CLR,CLR,0.00,WeatherDisplay:10.37,2013-08-14 05:20:00,
2013-08-14 00:25:00,62.8,50.4,30.17,NE,49,0.0,0.0,64,0.00,CLR,CLR,0.00,WeatherDisplay:10.37,2013-08-14 05:25:00,
2013-08-14 00:31:00,62.6,50.2,30.17,NE,49,0.0,0.0,64,0.00,CLR,CLR,0.00,WeatherDisplay:10.37,2013-08-14 05:31:00,
2013-08-14 00:36:00,62.5,50.2,30.17,NE,49,0.0,0.0,64,0.00,CLR,CLR,0.00,WeatherDisplay:10.37,2013-08-14 05:36:00,
2013-08-14 00:41:00,62.4,50.1,30.17,NE,49,0.0,0.0,64,0.00,CLR,CLR,0.00,WeatherDisplay:10.37,2013-08-14 05:41:00,
2013-08-14 00:46:00,62.3,50.0,30.17,NE,49,0.0,0.0,64,0.00,CLR,CLR,0.00,WeatherDisplay:10.37,2013-08-14 05:46:00,
2013-08-14 00:51:00,62.1,49.8,30.17,NE,49,0.0,0.0,64,0.00,CLR,CLR,0.00,WeatherDisplay:10.37,2013-08-14 05:51:00,
2013-08-14 00:56:00,61.9,49.6,30.17,NE,49,0.0,0.0,64,0.00,CLR,CLR,0.00,WeatherDisplay:10.37,2013-08-14 05:56:00,
2013-08-14 01:01:00,61.8,49.5,30.17,NE,49,0.0,0.0,64,0.00,OVC,OVC,0.00,WeatherDisplay:10.37,2013-08-14 06:01:00,
2013-08-14 01:06:00,61.7,49.8,30.17,NE,49,0.0,0.0,65,0.00,OVC,OVC,0.00,WeatherDisplay:10.37,2013-08-14 06:06:00,
2013-08-14 01:12:00,61.6,49.7,30.17,NE,49,0.0,0.0,65,0.00,OVC,OVC,0.00,WeatherDisplay:10.37,2013-08-14 06:12:00,
2013-08-14 01:17:00,61.6,50.1,30.17,NE,49,0.0,0.0,66,0.00,OVC,OVC,0.00,WeatherDisplay:10.37,2013-08-14 06:17:00,
2013-08-14 01:22:00,61.6,50.1,30.17,NE,49,0.0,0.0,66,0.00,OVC,OVC,0.00,WeatherDisplay:10.37,2013-08-14 06:22:00,
2013-08-14 01:27:00,61.5,50.0,30.17,NE,49,0.0,0.0,66,0.00,OVC,OVC,0.00,WeatherDisplay:10.37,2013-08-14 06:27:00,
2013-08-14 01:32:00,61.4,49.9,30.17,NE,49,0.0,0.0,66,0.00,OVC,OVC,0.00,WeatherDisplay:10.37,2013-08-14 06:32:00,
2013-08-14 01:38:00,61.5,50.0,30.17,NE,49,0.0,0.0,66,0.00,OVC,OVC,0.00,WeatherDisplay:10.37,2013-08-14 06:38:00,
2013-08-14 01:43:00,61.5,50.0,30.17,NE,49,0.0,0.0,66,0.00,OVC,OVC,0.00,WeatherDisplay:10.37,2013-08-14 06:43:00,
2013-08-14 01:48:00,61.4,49.9,30.17,NE,49,0.0,0.0,66,0.00,OVC,OVC,0.00,WeatherDisplay:10.37,2013-08-14 06:48:00,
2013-08-14 01:53:00,61.3,49.8,30.17,NE,49,0.0,0.0,66,0.00,OVC,OVC,0.00,WeatherDisplay:10.37,2013-08-14 06:53:00,
2013-08-14 01:59:00,61.2,49.7,30.17,NE,49,0.0,0.0,66,0.00,OVC,OVC,0.00,WeatherDisplay:10.37,2013-08-14 06:59:00,
2013-08-14 02:04:00,61.1,49.7,30.17,NE,49,0.0,0.0,66,0.00,OVC,OVC,0.00,WeatherDisplay:10.37,2013-08-14 07:04:00,
2013-08-14 02:09:00,61.1,49.7,30.17,NE,49,0.0,0.0,66,0.00,OVC,OVC,0.00,WeatherDisplay:10.37,2013-08-14 07:09:00,
2013-08-14 02:14:00,61.0,49.6,30.17,NE,49,0.0,0.0,66,0.00,OVC,OVC,0.00,WeatherDisplay:10.37,2013-08-14 07:14:00,
2013-08-14 02:19:00,61.1,49.7,30.17,NE,49,0.0,0.0,66,0.00,OVC,OVC,0.00,WeatherDisplay:10.37,2013-08-14 07:19:00,
2013-08-14 02:24:00,61.2,49.7,30.17,NE,49,0.0,0.0,66,0.00,OVC,OVC,0.00,WeatherDisplay:10.37,2013-08-14 07:24:00,
2013-08-14 02:29:00,61.1,49.7,30.17,NE,49,0.0,0.0,66,0.00,OVC,OVC,0.00,WeatherDisplay:10.37,2013-08-14 07:29:00,
2013-08-14 02:34:00,61.0,49.6,30.17,NE,49,0.0,0.0,66,0.00,OVC,OVC,0.00,WeatherDisplay:10.37,2013-08-14 07:34:00,
2013-08-14 02:39:00,60.8,49.4,30.17,NE,49,0.0,0.0,66,0.00,OVC,OVC,0.00,WeatherDisplay:10.37,2013-08-14 07:39:00,
2013-08-14 02:45:00,60.7,49.7,30.17,NE,49,0.0,0.0,67,0.00,OVC,OVC,0.00,WeatherDisplay:10.37,2013-08-14 07:45:00,
2013-08-14 02:50:00,60.6,49.6,30.17,NE,49,0.0,0.0,67,0.00,OVC,OVC,0.00,WeatherDisplay:10.37,2013-08-14 07:50:00,
2013-08-14 02:55:00,60.4,49.4,30.17,NE,49,0.0,0.0,67,0.00,OVC,OVC,0.00,WeatherDisplay:10.37,2013-08-14 07:55:00,
2013-08-14 03:00:00,60.2,49.2,30.17,NE,49,0.0,0.0,67,0.00,OVC,OVC,0.00,WeatherDisplay:10.37,2013-08-14 08:00:00,
2013-08-14 03:05:00,60.0,49.0,30.17,NE,49,0.0,0.0,67,0.00,OVC,OVC,0.00,WeatherDisplay:10.37,2013-08-14 08:05:00,
2013-08-14 03:10:00,59.8,48.8,30.17,NE,49,0.0,0.0,67,0.00,OVC,OVC,0.00,WeatherDisplay:10.37,2013-08-14 08:10:00,
2013-08-14 03:15:00,59.7,48.7,30.17,NE,49,0.0,0.0,67,0.00,OVC,OVC,0.00,WeatherDisplay:10.37,2013-08-14 08:15:00,
2013-08-14 03:20:00,59.6,48.6,30.17,NE,49,0.0,0.0,67,0.00,OVC,OVC,0.00,WeatherDisplay:10.37,2013-08-14 08:20:00,
2013-08-14 03:25:00,59.6,48.6,30.17,NE,49,0.0,0.0,67,0.00,OVC,OVC,0.00,WeatherDisplay:10.37,2013-08-14 08:25:00,
2013-08-14 03:31:00,59.6,48.6,30.18,NE,49,0.0,0.0,67,0.00,OVC,OVC,0.00,WeatherDisplay:10.37,2013-08-14 08:31:00,
2013-08-14 03:36:00,59.6,48.6,30.18,NE,49,0.0,0.0,67,0.00,OVC,OVC,0.00,WeatherDisplay:10.37,2013-08-14 08:36:00,
2013-08-14 03:41:00,59.6,48.6,30.18,NE,49,0.0,0.0,67,0.00,OVC,OVC,0.00,WeatherDisplay:10.37,2013-08-14 08:41:00,
2013-08-14 03:46:00,59.4,48.4,30.18,NE,49,0.0,0.0,67,0.00,OVC,OVC,0.00,WeatherDisplay:10.37,2013-08-14 08:46:00,
2013-08-14 03:51:00,59.1,48.1,30.18,NE,49,0.0,0.0,67,0.00,OVC,OVC,0.00,WeatherDisplay:10.37,2013-08-14 08:51:00,
2013-08-14 03:56:00,59.0,48.1,30.18,NE,49,0.0,0.0,67,0.00,OVC,OVC,0.00,WeatherDisplay:10.37,2013-08-14 08:56:00,
2013-08-14 04:01:00,59.0,48.1,30.18,NE,49,0.0,0.0,67,0.00,OVC,OVC,0.00,WeatherDisplay:10.37,2013-08-14 09:01:00,
2013-08-14 04:06:00,59.0,48.1,30.18,NE,49,0.0,0.0,67,0.00,OVC,OVC,0.00,WeatherDisplay:10.37,2013-08-14 09:06:00,
2013-08-14 04:12:00,59.0,48.1,30.18,NE,49,0.0,0.0,67,0.00,OVC,OVC,0.00,WeatherDisplay:10.37,2013-08-14 09:12:00,
2013-08-14 04:17:00,59.0,48.1,30.18,NE,49,0.0,0.0,67,0.00,OVC,OVC,0.00,WeatherDisplay:10.37,2013-08-14 09:17:00,
2013-08-14 04:22:00,59.0,48.1,30.18,NE,49,0.0,0.0,67,0.00,OVC,OVC,0.00,WeatherDisplay:10.37,2013-08-14 09:22:00,
2013-08-14 04:28:00,59.0,48.1,30.18,NE,49,0.0,0.0,67,0.00,OVC,OVC,0.00,WeatherDisplay:10.37,2013-08-14 09:28:00,
2013-08-14 04:33:00,59.0,48.1,30.18,NE,49,0.0,0.0,67,0.00,OVC,OVC,0.00,WeatherDisplay:10.37,2013-08-14 09:33:00,
2013-08-14 04:38:00,59.0,48.1,30.18,NE,49,0.0,0.0,67,0.00,OVC,OVC,0.00,WeatherDisplay:10.37,2013-08-14 09:38:00,
2013-08-14 04:43:00,58.6,47.7,30.18,NE,49,0.0,0.0,67,0.00,OVC,OVC,0.00,WeatherDisplay:10.37,2013-08-14 09:43:00,
2013-08-14 04:48:00,58.5,47.6,30.18,NE,49,0.0,0.0,67,0.00,OVC,OVC,0.00,WeatherDisplay:10.37,2013-08-14 09:48:00,
2013-08-14 04:53:00,58.5,47.6,30.18,NE,49,0.0,0.0,67,0.00,OVC,OVC,0.00,WeatherDisplay:10.37,2013-08-14 09:53:00,
2013-08-14 04:58:00,58.6,47.7,30.18,NE,49,0.0,0.0,67,0.00,OVC,OVC,0.00,WeatherDisplay:10.37,2013-08-14 09:58:00,
2013-08-14 05:04:00,58.7,47.8,30.18,NE,49,0.0,0.0,67,0.00,OVC,OVC,0.00,WeatherDisplay:10.37,2013-08-14 10:04:00,
2013-08-14 05:09:00,58.8,47.9,30.18,NE,49,0.0,0.0,67,0.00,OVC,OVC,0.00,WeatherDisplay:10.37,2013-08-14 10:09:00,
2013-08-14 05:14:00,58.6,47.7,30.18,NE,49,0.0,0.0,67,0.00,OVC,OVC,0.00,WeatherDisplay:10.37,2013-08-14 10:14:00,
2013-08-14 05:19:00,58.4,47.5,30.18,NE,49,0.0,0.0,67,0.00,OVC,OVC,0.00,WeatherDisplay:10.37,2013-08-14 10:19:00,
2013-08-14 05:24:00,58.2,47.3,30.18,NE,49,0.0,0.0,67,0.00,OVC,OVC,0.00,WeatherDisplay:10.37,2013-08-14 10:24:00,
2013-08-14 05:29:00,58.0,47.1,30.18,NE,49,0.0,0.0,67,0.00,OVC,OVC,0.00,WeatherDisplay:10.37,2013-08-14 10:29:00,
2013-08-14 05:34:00,57.8,46.9,30.18,NE,49,0.0,0.0,67,0.00,OVC,OVC,0.00,WeatherDisplay:10.37,2013-08-14 10:34:00,
2013-08-14 05:39:00,57.5,46.6,30.18,NE,49,0.0,0.0,67,0.00,OVC,OVC,0.00,WeatherDisplay:10.37,2013-08-14 10:39:00,
2013-08-14 05:45:00,57.2,46.3,30.19,NE,49,0.0,0.0,67,0.00,OVC,OVC,0.00,WeatherDisplay:10.37,2013-08-14 10:45:00,
2013-08-14 05:50:00,56.8,46.0,30.19,NE,49,0.0,0.0,67,0.00,OVC,OVC,0.00,WeatherDisplay:10.37,2013-08-14 10:50:00,
2013-08-14 05:55:00,56.4,45.2,30.19,NE,49,0.0,0.0,66,0.00,OVC,OVC,0.00,WeatherDisplay:10.37,2013-08-14 10:55:00,
2013-08-14 06:00:00,56.3,45.1,30.19,NE,49,0.0,0.0,66,0.00,OVC,OVC,0.00,WeatherDisplay:10.37,2013-08-14 11:00:00,
2013-08-14 06:05:00,56.0,44.8,30.19,NE,49,0.0,0.0,66,0.00,OVC,OVC,0.00,WeatherDisplay:10.37,2013-08-14 11:05:00,
2013-08-14 06:10:00,55.8,44.6,30.19,NE,49,0.0,0.0,66,0.00,OVC,OVC,0.00,WeatherDisplay:10.37,2013-08-14 11:10:00,
2013-08-14 06:16:00,55.4,44.2,30.19,NE,49,0.0,0.0,66,0.00,OVC,OVC,0.00,WeatherDisplay:10.37,2013-08-14 11:16:00,
2013-08-14 06:21:00,55.1,43.9,30.19,NE,49,0.0,0.0,66,0.00,OVC,OVC,0.00,WeatherDisplay:10.37,2013-08-14 11:21:00,
2013-08-14 06:26:00,54.8,43.3,30.19,NE,49,0.0,0.0,65,0.00,OVC,OVC,0.00,WeatherDisplay:10.37,2013-08-14 11:26:00,
2013-08-14 06:31:00,54.6,43.1,30.19,NE,49,0.0,0.0,65,0.00,OVC,OVC,0.00,WeatherDisplay:10.37,2013-08-14 11:31:00,
2013-08-14 06:36:00,54.4,42.9,30.19,NE,49,0.0,0.0,65,0.00,OVC,OVC,0.00,WeatherDisplay:10.37,2013-08-14 11:36:00,
2013-08-14 06:42:00,54.2,42.7,30.20,NE,49,0.0,0.0,65,0.00,OVC,OVC,0.00,WeatherDisplay:10.37,2013-08-14 11:42:00,
2013-08-14 06:47:00,54.2,42.7,30.20,NE,49,0.0,0.0,65,0.00,OVC,OVC,0.00,WeatherDisplay:10.37,2013-08-14 11:47:00,
2013-08-14 06:52:00,54.1,42.2,30.20,NE,49,0.0,0.0,64,0.00,OVC,OVC,0.00,WeatherDisplay:10.37,2013-08-14 11:52:00,
2013-08-14 06:57:00,54.1,42.2,30.20,NE,49,0.0,0.0,64,0.00,OVC,OVC,0.00,WeatherDisplay:10.37,2013-08-14 11:57:00,
2013-08-14 07:02:00,54.1,42.2,30.21,NE,49,0.0,0.0,64,0.00,OVC,OVC,0.00,WeatherDisplay:10.37,2013-08-14 12:02:00,
2013-08-14 07:07:00,54.1,42.2,30.21,NE,49,0.0,0.0,64,0.00,OVC,OVC,0.00,WeatherDisplay:10.37,2013-08-14 12:07:00,
2013-08-14 07:12:00,54.2,42.3,30.21,NE,49,0.0,0.0,64,0.00,OVC,OVC,0.00,WeatherDisplay:10.37,2013-08-14 12:12:00,
2013-08-14 07:17:00,54.4,42.1,30.21,NE,49,0.0,0.0,63,0.00,OVC,OVC,0.00,WeatherDisplay:10.37,2013-08-14 12:17:00,
2013-08-14 07:22:00,54.6,42.3,30.21,NE,49,0.0,0.0,63,0.00,OVC,OVC,0.00,WeatherDisplay:10.37,2013-08-14 12:22:00,
2013-08-14 07:28:00,54.8,42.4,30.22,NE,49,0.0,0.0,63,0.00,OVC,OVC,0.00,WeatherDisplay:10.37,2013-08-14 12:28:00,
2013-08-14 07:33:00,55.0,42.6,30.22,NE,49,0.0,0.0,63,0.00,OVC,OVC,0.00,WeatherDisplay:10.37,2013-08-14 12:33:00,
2013-08-14 07:38:00,55.2,42.8,30.22,NE,49,0.0,0.0,63,0.00,OVC,OVC,0.00,WeatherDisplay:10.37,2013-08-14 12:38:00,
2013-08-14 07:43:00,55.4,43.0,30.22,NE,49,0.0,0.0,63,0.00,OVC,OVC,0.00,WeatherDisplay:10.37,2013-08-14 12:43:00,
2013-08-14 07:48:00,55.6,42.8,30.22,NE,49,0.0,0.0,62,0.00,OVC,OVC,0.00,WeatherDisplay:10.37,2013-08-14 12:48:00,
2013-08-14 07:53:00,55.9,43.1,30.22,NE,49,0.0,0.0,62,0.00,OVC,OVC,0.00,WeatherDisplay:10.37,2013-08-14 12:53:00,
2013-08-14 07:59:00,56.3,43.4,30.22,NE,49,0.0,0.0,62,0.00,OVC,OVC,0.00,WeatherDisplay:10.37,2013-08-14 12:59:00,
2013-08-14 08:04:00,56.8,43.9,30.22,NE,49,0.0,0.0,62,0.00,OVC,OVC,0.00,WeatherDisplay:10.37,2013-08-14 13:04:00,
2013-08-14 08:09:00,57.2,44.7,30.22,NE,49,0.0,0.0,63,0.00,OVC,OVC,0.00,WeatherDisplay:10.37,2013-08-14 13:09:00,
2013-08-14 08:14:00,57.7,45.2,30.22,NE,49,0.0,0.0,63,0.00,OVC,OVC,0.00,WeatherDisplay:10.37,2013-08-14 13:14:00,
2013-08-14 08:19:00,58.3,46.2,30.22,NE,49,0.0,0.0,64,0.00,OVC,OVC,0.00,WeatherDisplay:10.37,2013-08-14 13:19:00,
2013-08-14 08:24:00,59.1,47.3,30.21,ENE,57,1.2,0.0,65,0.00,OVC,OVC,0.00,WeatherDisplay:10.37,2013-08-14 13:24:00,
2013-08-14 08:30:00,60.7,49.7,30.21,SSE,163,2.0,2.0,67,0.00,OVC,OVC,0.00,WeatherDisplay:10.37,2013-08-14 13:30:00,
2013-08-14 08:35:00,62.9,51.8,30.21,SSE,163,1.2,1.2,67,0.00,OVC,OVC,0.00,WeatherDisplay:10.37,2013-08-14 13:35:00,
2013-08-14 08:40:00,64.0,52.8,30.21,SSE,163,1.2,1.5,67,0.00,OVC,OVC,0.00,WeatherDisplay:10.37,2013-08-14 13:40:00,
2013-08-14 08:45:00,64.6,53.0,30.21,SSE,163,2.3,2.3,66,0.00,OVC,OVC,0.00,WeatherDisplay:10.37,2013-08-14 13:45:00,
2013-08-14 08:50:00,65.1,53.0,30.21,SSE,163,3.5,3.5,65,0.00,OVC,OVC,0.00,WeatherDisplay:10.37,2013-08-14 13:50:00,
2013-08-14 08:56:00,65.2,51.8,30.21,SSE,160,4.0,4.0,62,0.00,OVC,OVC,0.00,WeatherDisplay:10.37,2013-08-14 13:56:00,
2013-08-14 09:01:00,65.5,51.7,30.22,SSE,159,3.5,3.5,61,0.00,OVC,OVC,0.00,WeatherDisplay:10.37,2013-08-14 14:01:00,
2013-08-14 09:06:00,65.8,52.0,30.21,SSE,159,2.3,2.3,61,0.00,OVC,OVC,0.00,WeatherDisplay:10.37,2013-08-14 14:06:00,
2013-08-14 09:11:00,65.9,51.2,30.22,SSE,157,4.0,4.0,59,0.00,OVC,OVC,0.00,WeatherDisplay:10.37,2013-08-14 14:11:00,
2013-08-14 09:17:00,65.8,50.1,30.22,SSE,157,3.5,3.5,57,0.00,OVC,OVC,0.00,WeatherDisplay:10.37,2013-08-14 14:17:00,
2013-08-14 09:22:00,66.0,50.3,30.21,SSE,167,3.5,3.5,57,0.00,OVC,OVC,0.00,WeatherDisplay:10.37,2013-08-14 14:22:00,
2013-08-14 09:27:00,66.1,49.5,30.21,SSE,155,4.6,4.6,55,0.00,OVC,OVC,0.00,WeatherDisplay:10.37,2013-08-14 14:27:00,
2013-08-14 09:32:00,66.3,49.6,30.21,SSE,155,3.5,3.5,55,0.00,OVC,OVC,0.00,WeatherDisplay:10.37,2013-08-14 14:32:00,
2013-08-14 09:37:00,66.7,50.0,30.21,SSE,155,2.3,2.3,55,0.00,OVC,OVC,0.00,WeatherDisplay:10.37,2013-08-14 14:37:00,
2013-08-14 09:42:00,67.0,50.3,30.21,SSE,155,1.2,0.0,55,0.00,OVC,OVC,0.00,WeatherDisplay:10.37,2013-08-14 14:42:00,
2013-08-14 09:47:00,67.4,50.2,30.21,SSE,156,3.5,3.5,54,0.00,OVC,OVC,0.00,WeatherDisplay:10.37,2013-08-14 14:47:00,
2013-08-14 09:52:00,67.8,49.0,30.21,SSE,157,1.2,1.2,51,0.00,OVC,OVC,0.00,WeatherDisplay:10.37,2013-08-14 14:52:00,
2013-08-14 09:58:00,68.4,49.0,30.22,SSE,157,3.5,3.5,50,0.00,OVC,OVC,0.00,WeatherDisplay:10.37,2013-08-14 14:58:00,
2013-08-14 10:03:00,69.2,49.8,30.22,SSE,152,2.0,0.0,50,0.00,OVC,OVC,0.00,WeatherDisplay:10.37,2013-08-14 15:03:00,
2013-08-14 10:08:00,70.0,47.7,30.22,SSE,161,4.6,4.6,45,0.00,OVC,OVC,0.00,WeatherDisplay:10.37,2013-08-14 15:08:00,
2013-08-14 10:13:00,70.8,49.0,30.21,SSE,161,2.0,2.0,46,0.00,OVC,OVC,0.00,WeatherDisplay:10.37,2013-08-14 15:13:00,
2013-08-14 10:18:00,71.6,48.5,30.22,SSE,161,3.5,3.5,44,0.00,OVC,OVC,0.00,WeatherDisplay:10.37,2013-08-14 15:18:00,
2013-08-14 10:23:00,72.2,47.8,30.21,SSE,161,3.5,3.5,42,0.00,OVC,OVC,0.00,WeatherDisplay:10.37,2013-08-14 15:23:00,
2013-08-14 10:29:00,72.9,47.2,30.21,SSE,160,3.5,3.5,40,0.00,OVC,OVC,0.00,WeatherDisplay:10.37,2013-08-14 15:29:00,
2013-08-14 10:34:00,73.2,48.1,30.21,SSE,162,2.0,2.0,41,0.00,OVC,OVC,0.00,WeatherDisplay:10.37,2013-08-14 15:34:00,
2013-08-14 10:39:00,73.5,46.3,30.21,SSE,163,0.0,0.0,38,0.00,OVC,OVC,0.00,WeatherDisplay:10.37,2013-08-14 15:39:00,
2013-08-14 10:44:00,73.9,46.0,30.21,SSE,163,2.3,2.3,37,0.00,OVC,OVC,0.00,WeatherDisplay:10.37,2013-08-14 15:44:00,
2013-08-14 10:49:00,74.3,45.6,30.21,South,169,2.3,2.3,36,0.00,OVC,OVC,0.00,WeatherDisplay:10.37,2013-08-14 15:49:00,
2013-08-14 10:55:00,74.8,45.3,30.21,SSE,161,3.5,3.5,35,0.00,OVC,OVC,0.00,WeatherDisplay:10.37,2013-08-14 15:55:00,
2013-08-14 11:00:00,75.2,45.7,30.21,SE,146,4.6,4.6,35,0.00,OVC,OVC,0.00,WeatherDisplay:10.37,2013-08-14 16:00:00,
2013-08-14 11:05:00,75.5,45.2,30.21,SSE,154,4.6,4.6,34,0.00,OVC,OVC,0.00,WeatherDisplay:10.37,2013-08-14 16:05:00,
2013-08-14 11:10:00,75.9,46.3,30.21,SSE,153,0.0,0.0,35,0.00,OVC,OVC,0.00,WeatherDisplay:10.37,2013-08-14 16:10:00,
2013-08-14 11:16:00,76.1,45.7,30.21,South,169,3.5,3.5,34,0.00,OVC,OVC,0.00,WeatherDisplay:10.37,2013-08-14 16:16:00,
2013-08-14 11:21:00,76.6,46.1,30.21,SSE,167,4.0,4.0,34,0.00,OVC,OVC,0.00,WeatherDisplay:10.37,2013-08-14 16:21:00,
2013-08-14 11:26:00,76.9,45.6,30.21,SSE,157,3.5,3.5,33,0.00,OVC,OVC,0.00,WeatherDisplay:10.37,2013-08-14 16:26:00,
2013-08-14 11:31:00,77.4,46.0,30.21,SSE,154,3.0,3.0,33,0.00,OVC,OVC,0.00,WeatherDisplay:10.37,2013-08-14 16:31:00,
2013-08-14 11:37:00,76.9,46.4,30.21,SSE,154,0.0,0.1,34,0.00,OVC,OVC,0.00,WeatherDisplay:10.37,2013-08-14 16:37:00,
2013-08-14 11:42:00,76.6,45.3,30.21,SSE,155,4.0,4.0,33,0.00,OVC,OVC,0.00,WeatherDisplay:10.37,2013-08-14 16:42:00,
2013-08-14 11:47:00,76.9,44.8,30.21,SSE,155,3.5,3.5,32,0.00,OVC,OVC,0.00,WeatherDisplay:10.37,2013-08-14 16:47:00,
2013-08-14 11:53:00,77.4,46.0,30.20,SSE,152,2.3,2.3,33,0.00,OVC,OVC,0.00,WeatherDisplay:10.37,2013-08-14 16:53:00,
2013-08-14 11:58:00,77.9,46.5,30.20,SSE,152,3.0,3.0,33,0.00,OVC,OVC,0.00,WeatherDisplay:10.37,2013-08-14 16:58:00,
2013-08-14 12:03:00,78.5,44.5,30.20,SSE,159,4.0,4.0,30,0.00,OVC,OVC,0.00,WeatherDisplay:10.37,2013-08-14 17:03:00,
2013-08-14 12:09:00,79.0,44.9,30.19,SSE,159,0.0,0.0,30,0.00,OVC,OVC,0.00,WeatherDisplay:10.37,2013-08-14 17:09:00,
2013-08-14 12:14:00,79.8,44.7,30.19,SSE,159,2.3,2.3,29,0.00,OVC,OVC,0.00,WeatherDisplay:10.37,2013-08-14 17:14:00,
2013-08-14 12:19:00,80.0,44.9,30.19,NE,49,0.0,0.0,29,0.00,OVC,OVC,0.00,WeatherDisplay:10.37,2013-08-14 17:19:00,
2013-08-14 12:24:00,80.2,44.1,30.19,NE,55,1.2,0.0,28,0.00,OVC,OVC,0.00,WeatherDisplay:10.37,2013-08-14 17:24:00,
2013-08-14 12:29:00,80.6,43.5,30.19,SSE,151,3.5,3.5,27,0.00,OVC,OVC,0.00,WeatherDisplay:10.37,2013-08-14 17:29:00,
2013-08-14 12:34:00,80.9,44.7,30.18,SSE,153,3.5,3.5,28,0.00,OVC,OVC,0.00,WeatherDisplay:10.37,2013-08-14 17:34:00,
2013-08-14 12:39:00,80.7,44.6,30.18,SSE,163,5.0,5.0,28,0.00,OVC,OVC,0.00,WeatherDisplay:10.37,2013-08-14 17:39:00,
2013-08-14 12:44:00,80.4,44.3,30.18,SSE,153,6.9,6.9,28,0.00,OVC,OVC,0.00,WeatherDisplay:10.37,2013-08-14 17:44:00,
2013-08-14 12:50:00,80.5,43.4,30.18,SSE,153,4.6,4.6,27,0.00,OVC,OVC,0.00,WeatherDisplay:10.37,2013-08-14 17:50:00,
2013-08-14 12:56:00,81.0,43.9,30.18,SSE,155,6.0,6.0,27,0.00,OVC,OVC,0.00,WeatherDisplay:10.37,2013-08-14 17:56:00,
2013-08-14 13:01:00,81.2,43.0,30.18,SSE,159,1.2,0.0,26,0.00,OVC,OVC,0.00,WeatherDisplay:10.37,2013-08-14 18:01:00,
2013-08-14 13:06:00,79.0,44.9,30.18,North,355,0.0,0.0,30,0.00,OVC,OVC,0.00,WeatherDisplay:10.37,2013-08-14 18:06:00,
2013-08-14 13:11:00,78.8,45.6,30.18,North,355,0.0,0.0,31,0.00,OVC,OVC,0.00,WeatherDisplay:10.37,2013-08-14 18:11:00,
2013-08-14 13:16:00,79.1,44.1,30.17,SE,146,0.0,0.0,29,0.00,OVC,OVC,0.00,WeatherDisplay:10.37,2013-08-14 18:16:00,
2013-08-14 13:22:00,78.7,43.8,30.17,SE,144,0.0,0.0,29,0.00,OVC,OVC,0.00,WeatherDisplay:10.37,2013-08-14 18:22:00,
2013-08-14 13:28:00,78.1,45.8,30.18,SSE,148,5.0,5.0,32,0.00,OVC,OVC,0.00,WeatherDisplay:10.37,2013-08-14 18:28:00,
2013-08-14 13:32:00,78.0,44.9,30.17,SSE,148,0.0,0.0,31,0.00,OVC,OVC,0.00,WeatherDisplay:10.37,2013-08-14 18:32:00,
2013-08-14 13:38:00,78.2,46.7,30.17,SSE,148,0.0,0.0,33,0.00,OVC,OVC,0.00,WeatherDisplay:10.37,2013-08-14 18:38:00,
2013-08-14 13:43:00,78.5,46.2,30.17,SSE,151,2.3,2.3,32,0.00,OVC,OVC,0.00,WeatherDisplay:10.37,2013-08-14 18:43:00,
2013-08-14 13:48:00,79.1,45.0,30.17,SSE,151,0.0,0.0,30,0.00,OVC,OVC,0.00,WeatherDisplay:10.37,2013-08-14 18:48:00,
2013-08-14 13:53:00,79.6,44.5,30.17,SSE,151,3.5,3.5,29,0.00,OVC,OVC,0.00,WeatherDisplay:10.37,2013-08-14 18:53:00,
2013-08-14 13:59:00,80.4,44.3,30.17,South,173,5.8,5.8,28,0.00,OVC,OVC,0.00,WeatherDisplay:10.37,2013-08-14 18:59:00,
2013-08-14 14:04:00,80.9,42.8,30.17,SSW,192,0.0,0.1,26,0.00,OVC,OVC,0.00,WeatherDisplay:10.37,2013-08-14 19:04:00,
2013-08-14 14:12:00,81.4,45.2,30.16,South,183,0.0,0.0,28,0.00,OVC,OVC,0.00,WeatherDisplay:10.37,2013-08-14 19:12:00,
2013-08-14 14:18:00,81.0,42.9,30.16,SSE,161,0.0,0.0,26,0.00,OVC,OVC,0.00,WeatherDisplay:10.37,2013-08-14 19:18:00,
2013-08-14 14:23:00,80.7,42.6,30.16,SSE,160,3.5,3.5,26,0.00,OVC,OVC,0.00,WeatherDisplay:10.37,2013-08-14 19:23:00,
2013-08-14 14:28:00,80.8,44.6,30.16,SSE,160,0.0,0.0,28,0.00,OVC,OVC,0.00,WeatherDisplay:10.37,2013-08-14 19:28:00,
2013-08-14 14:33:00,80.9,43.8,30.16,SSE,159,3.5,0.0,27,0.00,OVC,OVC,0.00,WeatherDisplay:10.37,2013-08-14 19:33:00,
2013-08-14 14:39:00,80.0,42.0,30.16,NNE,22,5.0,5.0,26,0.00,OVC,OVC,0.00,WeatherDisplay:10.37,2013-08-14 19:39:00,
2013-08-14 14:44:00,77.5,43.6,30.16,NNW,338,0.0,0.0,30,0.00,OVC,OVC,0.00,WeatherDisplay:10.37,2013-08-14 19:44:00,
2013-08-14 14:50:00,77.8,42.1,30.16,NNW,336,3.5,3.5,28,0.00,OVC,OVC,0.00,WeatherDisplay:10.37,2013-08-14 19:50:00,
2013-08-14 14:55:00,78.2,43.3,30.16,NNW,338,3.5,3.5,29,0.00,OVC,OVC,0.00,WeatherDisplay:10.37,2013-08-14 19:55:00,
2013-08-14 15:00:00,78.2,43.3,30.16,NNW,336,0.0,0.0,29,0.00,OVC,OVC,0.00,WeatherDisplay:10.37,2013-08-14 20:00:00,
2013-08-14 15:05:00,78.3,44.3,30.16,NNW,336,0.0,0.0,30,0.00,OVC,OVC,0.00,WeatherDisplay:10.37,2013-08-14 20:05:00,
2013-08-14 15:11:00,78.5,45.3,30.15,NNW,336,0.0,0.0,31,0.00,OVC,OVC,0.00,WeatherDisplay:10.37,2013-08-14 20:11:00,
2013-08-14 15:16:00,78.7,42.8,30.15,SSE,152,2.0,2.0,28,0.00,OVC,OVC,0.00,WeatherDisplay:10.37,2013-08-14 20:16:00,
2013-08-14 15:21:00,78.9,43.0,30.15,SSE,152,2.0,2.0,28,0.00,OVC,OVC,0.00,WeatherDisplay:10.37,2013-08-14 20:21:00,
2013-08-14 15:27:00,77.7,42.0,30.15,SSE,148,0.0,0.0,28,0.00,OVC,OVC,0.00,WeatherDisplay:10.37,2013-08-14 20:27:00,
2013-08-14 15:32:00,77.9,41.2,30.14,SSE,149,3.5,3.5,27,0.00,OVC,OVC,0.00,WeatherDisplay:10.37,2013-08-14 20:32:00,
2013-08-14 15:38:00,78.5,41.7,30.14,SSE,149,3.5,3.5,27,0.00,OVC,OVC,0.00,WeatherDisplay:10.37,2013-08-14 20:38:00,
2013-08-14 15:44:00,79.0,44.0,30.14,SSE,150,0.0,0.0,29,0.00,OVC,OVC,0.00,WeatherDisplay:10.37,2013-08-14 20:44:00,
2013-08-14 15:49:00,79.4,44.4,30.14,SSE,150,1.2,0.0,29,0.00,OVC,OVC,0.00,WeatherDisplay:10.37,2013-08-14 20:49:00,
2013-08-14 15:54:00,79.9,43.9,30.14,South,173,4.6,4.6,28,0.00,OVC,OVC,0.00,WeatherDisplay:10.37,2013-08-14 20:54:00,
2013-08-14 15:59:00,80.5,43.4,30.14,SSE,165,0.0,0.0,27,0.00,OVC,OVC,0.00,WeatherDisplay:10.37,2013-08-14 20:59:00,
2013-08-14 16:04:00,80.9,42.8,30.14,SSE,156,3.5,0.0,26,0.00,OVC,OVC,0.00,WeatherDisplay:10.37,2013-08-14 21:04:00,
2013-08-14 16:10:00,80.6,42.5,30.13,SSE,167,0.0,0.0,26,0.00,OVC,OVC,0.00,WeatherDisplay:10.37,2013-08-14 21:10:00,
2013-08-14 16:15:00,79.7,43.7,30.13,ENE,69,0.0,0.0,28,0.00,OVC,OVC,0.00,WeatherDisplay:10.37,2013-08-14 21:15:00,
2013-08-14 16:20:00,79.2,44.2,30.14,ENE,69,0.0,0.0,29,0.00,OVC,OVC,0.00,WeatherDisplay:10.37,2013-08-14 21:20:00,
2013-08-14 16:25:00,78.7,43.8,30.13,ENE,69,0.0,0.0,29,0.00,OVC,OVC,0.00,WeatherDisplay:10.37,2013-08-14 21:25:00,
2013-08-14 16:30:00,78.3,44.3,30.13,ENE,69,0.0,0.0,30,0.00,OVC,OVC,0.00,WeatherDisplay:10.37,2013-08-14 21:30:00,
2013-08-14 16:35:00,78.2,45.9,30.13,ENE,69,0.0,0.0,32,0.00,OVC,OVC,0.00,WeatherDisplay:10.37,2013-08-14 21:35:00,
2013-08-14 16:40:00,78.5,43.6,30.13,ENE,69,0.0,0.4,29,0.00,OVC,OVC,0.00,WeatherDisplay:10.37,2013-08-14 21:40:00,
2013-08-14 16:46:00,78.6,46.3,30.13,ENE,68,0.0,0.0,32,0.00,OVC,OVC,0.00,WeatherDisplay:10.37,2013-08-14 21:46:00,
2013-08-14 16:51:00,78.7,45.5,30.13,SW,236,0.0,0.0,31,0.00,OVC,OVC,0.00,WeatherDisplay:10.37,2013-08-14 21:51:00,
2013-08-14 16:56:00,78.7,45.5,30.13,SE,138,3.5,3.5,31,0.00,OVC,OVC,0.00,WeatherDisplay:10.37,2013-08-14 21:56:00,
2013-08-14 17:02:00,78.5,45.3,30.13,SE,138,1.2,0.0,31,0.00,OVC,OVC,0.00,WeatherDisplay:10.37,2013-08-14 22:02:00,
2013-08-14 17:07:00,78.4,45.3,30.13,SSE,156,3.5,3.5,31,0.00,OVC,OVC,0.00,WeatherDisplay:10.37,2013-08-14 22:07:00,
2013-08-14 17:12:00,78.4,44.4,30.13,SSE,165,3.5,3.5,30,0.00,OVC,OVC,0.00,WeatherDisplay:10.37,2013-08-14 22:12:00,
2013-08-14 17:17:00,78.0,44.9,30.13,SSE,161,3.5,3.5,31,0.00,OVC,OVC,0.00,WeatherDisplay:10.37,2013-08-14 22:17:00,
2013-08-14 17:22:00,77.5,45.3,30.13,SSE,168,2.0,2.0,32,0.00,OVC,OVC,0.00,WeatherDisplay:10.37,2013-08-14 22:22:00,
2013-08-14 17:27:00,77.0,44.9,30.13,South,169,4.0,4.0,32,0.00,OVC,OVC,0.00,WeatherDisplay:10.37,2013-08-14 22:27:00,
2013-08-14 17:33:00,76.6,44.5,30.13,SSE,164,3.5,3.5,32,0.00,OVC,OVC,0.00,WeatherDisplay:10.37,2013-08-14 22:33:00,
2013-08-14 17:38:00,76.4,45.2,30.13,SSE,164,3.5,3.5,33,0.00,OVC,OVC,0.00,WeatherDisplay:10.37,2013-08-14 22:38:00,
2013-08-14 17:43:00,76.2,45.0,30.13,SSE,164,0.0,0.0,33,0.00,OVC,OVC,0.00,WeatherDisplay:10.37,2013-08-14 22:43:00,
2013-08-14 17:48:00,75.8,44.6,30.13,SSE,163,2.3,2.3,33,0.00,OVC,OVC,0.00,WeatherDisplay:10.37,2013-08-14 22:48:00,
2013-08-14 17:53:00,75.4,45.1,30.13,SSE,163,2.3,2.3,34,0.00,OVC,OVC,0.00,WeatherDisplay:10.37,2013-08-14 22:53:00,
2013-08-14 17:58:00,75.2,44.9,30.13,SSE,160,3.5,3.5,34,0.00,OVC,OVC,0.00,WeatherDisplay:10.37,2013-08-14 22:58:00,
2013-08-14 18:03:00,75.1,45.6,30.13,SSE,160,1.2,1.2,35,0.00,OVC,OVC,0.00,WeatherDisplay:10.37,2013-08-14 23:03:00,
2013-08-14 18:08:00,74.9,44.6,30.13,SSE,160,2.3,2.3,34,0.00,OVC,OVC,0.00,WeatherDisplay:10.37,2013-08-14 23:08:00,
2013-08-14 18:13:00,74.9,45.4,30.13,SSE,160,3.5,0.0,35,0.00,OVC,OVC,0.00,WeatherDisplay:10.37,2013-08-14 23:13:00,
2013-08-14 18:18:00,74.8,44.5,30.13,SSE,160,3.5,3.5,34,0.00,OVC,OVC,0.00,WeatherDisplay:10.37,2013-08-14 23:18:00,
2013-08-14 18:23:00,74.8,45.3,30.12,SSE,160,2.0,2.0,35,0.00,OVC,OVC,0.00,WeatherDisplay:10.37,2013-08-14 23:23:00,
2013-08-14 18:29:00,74.6,45.1,30.12,SSE,160,0.0,0.0,35,0.00,OVC,OVC,0.00,WeatherDisplay:10.37,2013-08-14 23:29:00,
2013-08-14 18:34:00,74.4,45.0,30.12,SSE,160,3.5,3.5,35,0.00,OVC,OVC,0.00,WeatherDisplay:10.37,2013-08-14 23:34:00,
2013-08-14 18:36:00,74.2,44.0,30.12,SSE,160,3.5,3.5,34,0.00,OVC,OVC,0.00,WeatherDisplay:10.37,2013-08-14 23:36:00,
2013-08-14 18:41:00,74.0,44.6,30.12,SSE,160,1.2,1.2,35,0.00,OVC,OVC,0.00,WeatherDisplay:10.37,2013-08-14 23:41:00,
2013-08-14 18:47:00,73.8,44.4,30.12,SSE,159,2.3,2.3,35,0.00,OVC,OVC,0.00,WeatherDisplay:10.37,2013-08-14 23:47:00,
2013-08-14 18:52:00,73.6,44.2,30.12,SSE,159,4.6,4.6,35,0.00,OVC,OVC,0.00,WeatherDisplay:10.37,2013-08-14 23:52:00,
2013-08-14 18:57:00,73.3,44.7,30.12,SSE,161,3.5,3.5,36,0.00,OVC,OVC,0.00,WeatherDisplay:10.37,2013-08-14 23:57:00,
2013-08-14 19:02:00,73.1,44.5,30.12,SSE,161,1.2,1.2,36,0.00,OVC,OVC,0.00,WeatherDisplay:10.37,2013-08-15 00:02:00,
2013-08-14 19:07:00,72.9,45.1,30.12,SSE,161,3.0,3.0,37,0.00,OVC,OVC,0.00,WeatherDisplay:10.37,2013-08-15 00:07:00,
2013-08-14 19:12:00,72.7,44.2,30.12,South,175,2.3,2.3,36,0.00,OVC,OVC,0.00,WeatherDisplay:10.37,2013-08-15 00:12:00,
2013-08-14 19:17:00,72.5,44.0,30.12,South,170,3.5,3.5,36,0.00,OVC,OVC,0.00,WeatherDisplay:10.37,2013-08-15 00:17:00,
2013-08-14 19:22:00,72.4,44.6,30.12,South,170,1.2,1.2,37,0.00,OVC,OVC,0.00,WeatherDisplay:10.37,2013-08-15 00:22:00,
2013-08-14 19:27:00,72.2,44.5,30.12,South,170,1.2,1.2,37,0.00,OVC,OVC,0.00,WeatherDisplay:10.37,2013-08-15 00:27:00,
2013-08-14 19:32:00,72.1,44.4,30.12,South,170,0.0,0.0,37,0.00,OVC,OVC,0.00,WeatherDisplay:10.37,2013-08-15 00:32:00,
2013-08-14 19:37:00,72.0,45.7,30.12,South,170,0.0,0.7,39,0.00,OVC,OVC,0.00,WeatherDisplay:10.37,2013-08-15 00:37:00,
2013-08-14 19:43:00,71.9,44.9,30.12,South,169,2.3,2.3,38,0.00,OVC,OVC,0.00,WeatherDisplay:10.37,2013-08-15 00:43:00,
2013-08-14 19:48:00,71.8,44.8,30.12,South,169,0.0,0.0,38,0.00,OVC,OVC,0.00,WeatherDisplay:10.37,2013-08-15 00:48:00,
2013-08-14 19:53:00,71.7,44.7,30.12,South,169,2.3,2.3,38,0.00,OVC,OVC,0.00,WeatherDisplay:10.37,2013-08-15 00:53:00,
2013-08-14 19:58:00,71.5,45.2,30.11,South,169,0.0,0.0,39,0.00,OVC,OVC,0.00,WeatherDisplay:10.37,2013-08-15 00:58:00,
2013-08-14 20:03:00,71.3,45.1,30.11,South,169,0.0,0.0,39,0.00,OVC,OVC,0.00,WeatherDisplay:10.37,2013-08-15 01:03:00,
2013-08-14 20:09:00,71.0,45.5,30.11,South,169,0.0,0.0,40,0.00,OVC,OVC,0.00,WeatherDisplay:10.37,2013-08-15 01:09:00,
2013-08-14 20:14:00,70.7,45.2,30.11,South,169,0.0,0.0,40,0.00,OVC,OVC,0.00,WeatherDisplay:10.37,2013-08-15 01:14:00,
2013-08-14 20:19:00,70.4,45.6,30.11,South,169,0.0,0.0,41,0.00,OVC,OVC,0.00,WeatherDisplay:10.37,2013-08-15 01:19:00,
2013-08-14 20:24:00,70.2,46.6,30.11,South,169,0.0,0.0,43,0.00,OVC,OVC,0.00,WeatherDisplay:10.37,2013-08-15 01:24:00,
2013-08-14 20:29:00,70.0,47.1,30.11,South,169,0.0,0.0,44,0.00,OVC,OVC,0.00,WeatherDisplay:10.37,2013-08-15 01:29:00,
2013-08-14 20:34:00,69.6,46.7,30.11,South,169,0.0,0.0,44,0.00,OVC,OVC,0.00,WeatherDisplay:10.37,2013-08-15 01:34:00,
2013-08-14 20:39:00,69.2,46.4,30.11,South,169,0.0,0.0,44,0.00,OVC,OVC,0.00,WeatherDisplay:10.37,2013-08-15 01:39:00,
2013-08-14 20:44:00,68.9,46.7,30.11,South,169,0.0,0.0,45,0.00,OVC,OVC,0.00,WeatherDisplay:10.37,2013-08-15 01:44:00,
2013-08-14 20:49:00,68.5,46.9,30.12,South,169,0.0,0.0,46,0.00,OVC,OVC,0.00,WeatherDisplay:10.37,2013-08-15 01:49:00,
2013-08-14 20:55:00,68.0,46.4,30.12,South,169,0.0,0.0,46,0.00,OVC,OVC,0.00,WeatherDisplay:10.37,2013-08-15 01:55:00,
2013-08-14 21:00:00,67.8,46.8,30.12,South,169,0.0,0.0,47,0.00,OVC,OVC,0.00,WeatherDisplay:10.37,2013-08-15 02:00:00,
2013-08-14 21:05:00,67.6,47.2,30.11,South,169,0.0,0.0,48,0.00,OVC,OVC,0.00,WeatherDisplay:10.37,2013-08-15 02:05:00,
2013-08-14 21:10:00,67.4,47.0,30.12,South,169,0.0,0.0,48,0.00,OVC,OVC,0.00,WeatherDisplay:10.37,2013-08-15 02:10:00,
2013-08-14 21:15:00,67.2,46.8,30.12,South,169,0.0,0.0,48,0.00,OVC,OVC,0.00,WeatherDisplay:10.37,2013-08-15 02:15:00,
2013-08-14 21:20:00,66.9,46.6,30.12,South,169,0.0,0.0,48,0.00,OVC,OVC,0.00,WeatherDisplay:10.37,2013-08-15 02:20:00,
2013-08-14 21:25:00,66.8,47.0,30.12,South,169,0.0,0.0,49,0.00,OVC,OVC,0.00,WeatherDisplay:10.37,2013-08-15 02:25:00,
2013-08-14 21:30:00,66.6,47.4,30.12,South,169,0.0,0.0,50,0.00,OVC,OVC,0.00,WeatherDisplay:10.37,2013-08-15 02:30:00,
2013-08-14 21:36:00,66.5,47.8,30.12,South,169,0.0,0.0,51,0.00,OVC,OVC,0.00,WeatherDisplay:10.37,2013-08-15 02:36:00,
2013-08-14 21:41:00,66.4,47.7,30.13,South,169,0.0,0.0,51,0.00,OVC,OVC,0.00,WeatherDisplay:10.37,2013-08-15 02:41:00,
2013-08-14 21:46:00,66.4,47.7,30.13,South,169,0.0,0.0,51,0.00,OVC,OVC,0.00,WeatherDisplay:10.37,2013-08-15 02:46:00,
2013-08-14 21:51:00,66.3,48.1,30.13,South,169,0.0,0.0,52,0.00,OVC,OVC,0.00,WeatherDisplay:10.37,2013-08-15 02:51:00,
2013-08-14 21:56:00,66.4,48.2,30.13,South,169,0.0,0.0,52,0.00,OVC,OVC,0.00,WeatherDisplay:10.37,2013-08-15 02:56:00,
2013-08-14 22:01:00,66.4,48.7,30.12,South,169,0.0,0.0,53,0.00,OVC,OVC,0.00,WeatherDisplay:10.37,2013-08-15 03:01:00,
2013-08-14 22:06:00,66.4,48.7,30.12,South,169,0.0,0.0,53,0.00,OVC,OVC,0.00,WeatherDisplay:10.37,2013-08-15 03:06:00,
2013-08-14 22:11:00,66.4,48.7,30.12,South,169,0.0,0.0,53,0.00,OVC,OVC,0.00,WeatherDisplay:10.37,2013-08-15 03:11:00,
2013-08-14 22:16:00,66.3,48.1,30.12,South,169,2.3,2.3,52,0.00,OVC,OVC,0.00,WeatherDisplay:10.37,2013-08-15 03:16:00,
2013-08-14 22:21:00,66.3,48.1,30.12,South,169,0.0,0.0,52,0.00,OVC,OVC,0.00,WeatherDisplay:10.37,2013-08-15 03:21:00,
2013-08-14 22:27:00,66.4,47.7,30.12,South,169,0.0,0.0,51,0.00,OVC,OVC,0.00,WeatherDisplay:10.37,2013-08-15 03:27:00,
2013-08-14 22:32:00,66.5,47.8,30.12,South,169,1.2,1.2,51,0.00,OVC,OVC,0.00,WeatherDisplay:10.37,2013-08-15 03:32:00,
2013-08-14 22:37:00,66.6,47.9,30.12,South,169,0.0,0.0,51,0.00,OVC,OVC,0.00,WeatherDisplay:10.37,2013-08-15 03:37:00,
2013-08-14 22:43:00,66.8,47.6,30.12,South,169,1.2,1.2,50,0.00,OVC,OVC,0.00,WeatherDisplay:10.37,2013-08-15 03:43:00,
2013-08-14 22:48:00,67.0,47.7,30.12,South,173,3.5,3.5,50,0.00,OVC,OVC,0.00,WeatherDisplay:10.37,2013-08-15 03:48:00,
2013-08-14 22:53:00,67.2,47.4,30.12,South,173,2.3,0.0,49,0.00,OVC,OVC,0.00,WeatherDisplay:10.37,2013-08-15 03:53:00,
2013-08-14 22:58:00,67.3,47.5,30.12,SSE,155,4.6,4.6,49,0.00,OVC,OVC,0.00,WeatherDisplay:10.37,2013-08-15 03:58:00,
2013-08-14 23:01:00,67.3,47.5,30.12,SSE,155,0.0,0.1,49,0.00,OVC,OVC,0.00,WeatherDisplay:10.37,2013-08-15 04:01:00,
2013-08-14 23:02:00,67.3,47.5,30.12,SSE,155,1.2,0.0,49,0.00,OVC,OVC,0.00,WeatherDisplay:10.37,2013-08-15 04:02:00,
2013-08-14 23:03:00,67.3,47.5,30.12,SSE,155,2.3,2.3,49,0.00,OVC,OVC,0.00,WeatherDisplay:10.37,2013-08-15 04:03:00,
2013-08-14 23:08:00,67.2,47.4,30.12,SSE,157,2.3,2.3,49,0.00,OVC,OVC,0.00,WeatherDisplay:10.37,2013-08-15 04:08:00,
2013-08-14 23:13:00,67.2,47.4,30.12,SSE,159,4.6,4.6,49,0.00,OVC,OVC,0.00,WeatherDisplay:10.37,2013-08-15 04:13:00,
2013-08-14 23:19:00,67.2,47.4,30.12,SSE,158,3.5,3.5,49,0.00,OVC,OVC,0.00,WeatherDisplay:10.37,2013-08-15 04:19:00,
2013-08-14 23:24:00,67.2,47.4,30.12,SSE,159,3.5,3.5,49,0.00,OVC,OVC,0.00,WeatherDisplay:10.37,2013-08-15 04:24:00,
2013-08-14 23:29:00,67.2,46.8,30.12,SSE,159,4.6,4.6,48,0.00,OVC,OVC,0.00,WeatherDisplay:10.37,2013-08-15 04:29:00,
2013-08-14 23:34:00,67.2,46.8,30.12,SSE,165,3.5,3.5,48,0.00,OVC,OVC,0.00,WeatherDisplay:10.37,2013-08-15 04:34:00,
2013-08-14 23:39:00,67.2,46.8,30.12,SSE,157,3.5,3.5,48,0.00,OVC,OVC,0.00,WeatherDisplay:10.37,2013-08-15 04:39:00,
2013-08-14 23:44:00,67.2,47.4,30.12,SSE,158,4.6,4.6,49,0.00,OVC,OVC,0.00,WeatherDisplay:10.37,2013-08-15 04:44:00,
2013-08-14 23:50:00,67.1,47.3,30.12,SSE,157,3.5,3.5,49,0.00,OVC,OVC,0.00,WeatherDisplay:10.37,2013-08-15 04:50:00,
2013-08-14 23:55:00,67.1,47.3,30.11,SSE,159,4.6,4.6,49,0.00,OVC,OVC,0.00,WeatherDisplay:10.37,2013-08-15 04:55:00,